Taylor Park, Colorado
Current Conditions -  °F | °C
As of 11:55 AM on Friday 21 Nov 2014 (Local Time) from KGUC Reporting Station
Clear Clear  
Wind Chill: 28°   Ceiling: Unl
Heat Index: 28°   Visibility: 10mi
Dew Point: 14°   Wind: 0mph
Humidity: 55%   Direction: NA
Pressure: 30.15"   Gusts: NA
Location:  38.5539°N, 107.09°W
Report Text: KGUC 211855Z AUTO 00000KT 10SM CLR M02/M10 A3015 RMK AO1
Loading
Personal Weather Stations






























Interactive Weather Map New forecast layout! Learn more

10-Day Weather Forecast

Advertisements
Track Severe Weather on mobile